METAR v bližini

 

LJLJ - Ljubljana/Brnik, Slovenia
Oddaljenost od postaje: Z 41km
Podatki zajeti: 25/07/2017 00:30
Pretežno oblačno
Pretežno oblačno
 Veter iz smeri spremenljiv
Veter: spremenljiv 4 km/h
Temperatura: 15°C
Rosišče: 13°C
Vlažnost: 88%
Tlak: 1006 hPa
Oblačnost: Pretežno oblačno
Vidljivost: 10 km
Podrobnosti o oblakih: Rahlo oblačno 1524 m
Pretežno oblačno 2743 m
2017/07/24 22:30 LJLJ 242230Z VRB02KT 9999 FEW050 BKN090 15/13 Q1006 NOSIG
LJMB - Maribor, Slovenia
Oddaljenost od postaje: SV 63km
Podatki zajeti: 25/07/2017 00:30
Delno oblačno
Delno oblačno
 Veter iz smeri S
Veter: S 15 km/h
Temperatura: 18°C
Rosišče: 13°C
Vlažnost: 73%
Tlak: 1005 hPa
Oblačnost: Delno oblačno
Vidljivost: 10 km
2017/07/24 22:30 LJMB 242230Z AUTO 01008KT 9999 NSC 18/13 Q1005
 
LJPZ - Portoroz, Slovenia
Oddaljenost od postaje: JZ 130km
Podatki zajeti: 25/07/2017 00:30
Jasno
Jasno
 Veter iz smeri JV
Veter: JV 11 km/h
Temperatura: 17°C
Rosišče: 16°C
Vlažnost: 94%
Tlak: 1003 hPa
Oblačnost: Jasno
Vidljivost: 10 km
2017/07/24 22:30 LJPZ 242230Z AUTO 13006KT 9999 NCD 17/16 Q1003
LJCE - Cerklje, Slovenia
Oddaljenost od postaje: VJV 49km
Podatki zajeti: 25/07/2017 00:30
Oblačno
Oblačno
 Veter iz smeri JZ
Veter: JZ 9 km/h
Temperatura: 19°C
Rosišče: 17°C
Vlažnost: 88%
Tlak: 1005 hPa
Oblačnost: Oblačno
Vidljivost: 10 km
Podrobnosti o oblakih: Oblačno 1280 m
2017/07/24 22:30 LJCE 242230Z AUTO 23005KT 9999 OVC042/// 19/17 Q1005
 
LDZA - Zagreb/Pleso, Croatia
Oddaljenost od postaje: VJV 96km
Podatki zajeti: 25/07/2017 00:30
Pretežno oblačno
Pretežno oblačno
 Veter iz smeri spremenljiv
Veter: spremenljiv 4 km/h
Temperatura: 19°C
Rosišče: 18°C
Vlažnost: 94%
Tlak: 1005 hPa
Oblačnost: Pretežno oblačno
Vidljivost: 10 km
Podrobnosti o oblakih: Pretežno oblačno 610 m
2017/07/24 22:30 LDZA 242230Z VRB02KT 9999 BKN020 19/18 Q1005 BECMG 03007KT
LDRI - Rijeka/Omisalj, Croatia
Oddaljenost od postaje: JJZ 109km
Podatki zajeti: 25/07/2017 00:30
Jasno
Jasno
 Veter iz smeri spremenljiv
Veter: spremenljiv 7 km/h
Temperatura: 21°C
Rosišče: 15°C
Vlažnost: 69%
Tlak: 1003 hPa
Stanje: Jasno
Vidljivost: večja od 10 km
2017/07/24 22:30 LDRI 242230Z VRB04KT CAVOK 21/15 Q1003
 
LDPL - Pula, Croatia
Oddaljenost od postaje: JJZ 164km
Podatki zajeti: 25/07/2017 00:30
Jasno
Jasno
 Veter iz smeri S
Veter: S 9 km/h
Temperatura: 18°C
Rosišče: 17°C
Vlažnost: 94%
Tlak: 1004 hPa
Stanje: Jasno
Vidljivost: večja od 10 km
2017/07/24 22:30 LDPL 242230Z 01005KT CAVOK 18/17 Q1004 BECMG 06012KT
LOWK - Klagenfurt(Civ/M, Austria
Oddaljenost od postaje: SZ 76km
Podatki zajeti: 25/07/2017 00:20
Rahlo oblačno
Rahlo oblačno
 Veter iz smeri ZSZ
Veter: ZSZ 6 km/h
Temperatura: 13°C
Rosišče: 12°C
Vlažnost: 94%
Tlak: 1008 hPa
Oblačnost: Rahlo oblačno
Vidljivost: 10 km
Podrobnosti o oblakih: Rahlo oblačno 3048 m
2017/07/24 22:20 LOWK 242220Z AUTO 29003KT 9999 FEW100 13/12 Q1008
 
LOWG - Graz (mil/Civ), Austria
Oddaljenost od postaje: SSV 100km
Podatki zajeti: 25/07/2017 00:20
Rahlo rosi, Pretežno oblačno
Rahlo rosi, Pretežno oblačno
 Veter iz smeri spremenljiv
Veter: spremenljiv 4 km/h
Temperatura: 16°C
Rosišče: 14°C
Vlažnost: 88%
Tlak: 1006 hPa
Stanje: Rahlo rosi
Oblačnost: Pretežno oblačno
Vidljivost: 10 km
Podrobnosti o oblakih: Pretežno oblačno 2438 m
2017/07/24 22:20 LOWG 242220Z AUTO VRB02KT 9999 -DZ BKN080 16/14 Q1006
LOWZ - Zell Am See, Austria
Oddaljenost od postaje: SZ 211km
Podatki zajeti: 31/12/2016 17:00
Ni posodobljen
Jasno
Jasno
 Veter iz smeri spremenljiv
Veter: spremenljiv 4 km/h
Temperatura: -4°C
Rosišče: -7°C
Vlažnost: 80%
Tlak: 1031 hPa
Oblačnost: Jasno
2016/12/31 16:00 LOWZ 311600Z VRB02KT 50KM SKC M04/M07 Q1031
 
LOAN - Wr.neustadt East, Austria
Oddaljenost od postaje: SSV 212km
Podatki zajeti: 24/07/2017 21:00
Ni posodobljen
Posamezne plohe, Pretežno oblačno
Posamezne plohe, Pretežno oblačno
 Veter iz smeri ZSZ
Veter: ZSZ 26 km/h
Stanje: Posamezne plohe
Oblačnost: Pretežno oblačno
Podrobnosti o oblakih: Rahlo oblačno 610 m
Delno oblačno 1219 m
Pretežno oblačno 1829 m
2017/07/24 19:00 LOAN 241900Z 30014KT 25KM VCSH FEW020CU SCT040CU BKN060SC
LIPQ - Ronchi Legionari, Italy
Oddaljenost od postaje: JZ 35km
Podatki zajeti: 24/07/2017 23:50
Jasno
Jasno
 Veter iz smeri SV
Veter: SV 6 km/h
Temperatura: 18°C
Rosišče: 16°C
Vlažnost: 88%
Tlak: 1003 hPa
Stanje: Jasno
Vidljivost: večja od 10 km
2017/07/24 21:50 LIPQ 242150Z 05003KT 020V080 CAVOK 18/16 Q1003
 
LIVT - Trieste, Italy
Oddaljenost od postaje: ZJZ 109km
Podatki zajeti: 24/07/2017 23:55
Jasno
Jasno
 Veter iz smeri JJV
Veter: JJV 2 km/h
Temperatura: 21°C
Rosišče: 14°C
Vlažnost: 64%
Tlak: 1003 hPa
Stanje: Jasno
Vidljivost: večja od 10 km
2017/07/24 21:55 LIVT 242155Z 15001KT CAVOK 21/14 Q1003 RMK FEW FEW200 QUK / QUL / VIS MAR 20 KM VIS MIN 9999
LIVO - Tarvisio, Italy
Oddaljenost od postaje: SSZ 49km
Podatki zajeti: 24/07/2017 19:55
Ni posodobljen
Nevihta, Pretežno oblačno
Nevihta, Pretežno oblačno
 Veter iz smeri ZSZ
Veter: ZSZ 2 km/h
Temperatura: 13°C
Rosišče: 12°C
Vlažnost: 94%
Tlak: 1009 hPa
Stanje: Thunderstorm Rain
Oblačnost: Pretežno oblačno
Vidljivost: 10 km
Podrobnosti o oblakih: Delno oblačno 457 m
Pretežno oblačno 610 m
2017/07/24 17:55 LIVO 241755Z 30001KT 9999 TSRA SCT015CB BKN020 13/12 Q1009 RMK OVC VIS MIN 9999
 
LIPZ - Venezia/Tessera, Italy
Oddaljenost od postaje: ZJZ 217km
Podatki zajeti: 25/07/2017 00:20
Jasno
Jasno
 Veter iz smeri ZSZ
Veter: ZSZ 9 km/h
Temperatura: 19°C
Rosišče: 17°C
Vlažnost: 88%
Tlak: 1004 hPa
Stanje: Jasno
Vidljivost: večja od 10 km
2017/07/24 22:20 LIPZ 242220Z 29005KT 270V340 CAVOK 19/17 Q1004 NOSIG
LHSM - Balaton, Hungary
Oddaljenost od postaje: VSV 177km
Podatki zajeti: 24/07/2017 17:45
Ni posodobljen
Pretežno oblačno
Pretežno oblačno
 Veter iz smeri SZ
Veter: SZ 20 km/h
Temperatura: 27°C
Toplotni indeks: 29°C
Rosišče: 20°C
Vlažnost: 66%
Tlak: 1004 hPa
Oblačnost: Pretežno oblačno
Vidljivost: 10 km
Podrobnosti o oblakih: Rahlo oblačno 914 m
Pretežno oblačno 2530 m
2017/07/24 15:45 LHSM 241545Z 32011KT 9999 FEW030 BKN083 27/20 Q1004 NOSIG